Home > Products > Valid Products > TAF

000
FTUS41 KCAR 011738
TAFCAR
TAF
KCAR 011738Z 0118/0218 20009KT P6SM -SHRA SCT025 BKN070
      TEMPO 0118/0121 27015G25KT 3SM -TSRA BKN025CB
     FM020000 26005KT P6SM BKN250=



000
FTUS41 KCAR 011738
TAFPQI
TAF
KPQI 011738Z 0118/0218 24008KT P6SM -SHRA SCT025 BKN070
      TEMPO 0118/0121 4SM -TSRA BKN025CB
     FM020000 26005KT P6SM BKN250
      AMD LTD TO CLD VIS AND WIND=



000
FTUS41 KCAR 011738
TAFHUL
TAF
KHUL 011738Z 0118/0218 23009KT P6SM -SHRA SCT025 BKN045
      TEMPO 0118/0121 27015G25KT 3SM -TSRA BKN025CB
     FM012200 25007KT P6SM BKN110
     FM020000 26006KT P6SM BKN250=



000
FTUS41 KCAR 011738
TAFBHB
TAF
KBHB 011738Z 0118/0218 21010G20KT P6SM VCSH SCT080
     FM020000 VRB03KT P6SM SCT250
      AMD LTD TO CLD VIS AND WIND=



000
FTUS41 KCAR 011738
TAFBGR
TAF
KBGR 011738Z 0118/0218 23008KT P6SM -SHRA SCT025 BKN090
      TEMPO 0118/0121 4SM -TSRA BKN025CB
     FM012200 25006KT P6SM BKN140=



000
FTUS41 KCAR 011738
TAFCAR
TAF
KCAR 011738Z 0118/0218 20009KT P6SM -SHRA SCT025 BKN070
      TEMPO 0118/0121 27015G25KT 3SM -TSRA BKN025CB
     FM020000 26005KT P6SM BKN250=



000
FTUS41 KCAR 011641 AAA
TAFHUL
TAF AMD
KHUL 011641Z 0117/0212 21008KT P6SM VCTS SCT025 BKN050CB
      TEMPO 0117/0120 5SM -TSRA BKN025CB
     FM012200 25007KT P6SM -SHRA OVC045
     FM020200 VRB03KT 6SM BR SKC
     FM020800 00000KT 2SM BR SCT003=



000
FTUS41 KCAR 011641 AAA
TAFHUL
TAF AMD
KHUL 011641Z 0117/0212 21008KT P6SM VCTS SCT025 BKN050CB
      TEMPO 0117/0120 5SM -TSRA BKN025CB
     FM012200 25007KT P6SM -SHRA OVC045
     FM020200 VRB03KT 6SM BR SKC
     FM020800 00000KT 2SM BR SCT003=



000
FTUS41 KCAR 011639 AAA
TAFPQI
TAF AMD
KPQI 011639Z 0117/0212 21008KT P6SM VCTS SCT025 BKN050CB
      TEMPO 0117/0120 5SM -TSRA BKN025CB
     FM012300 25006KT P6SM -SHRA OVC045
     FM020200 VRB03KT 6SM BR SKC
     FM020800 00000KT 3SM BR SCT003
      AMD LTD TO CLD VIS AND WIND=



000
FTUS41 KCAR 011638 AAA
TAFCAR
TAF AMD
KCAR 011638Z 0117/0212 21008KT P6SM VCTS SCT025 BKN050CB
      TEMPO 0117/0120 5SM -TSRA BKN025CB
     FM012300 25006KT P6SM -SHRA OVC050
     FM020200 24003KT 6SM BR SKC
     FM020700 VRB03KT 3SM BR SCT003=



000
FTUS41 KCAR 011120
TAFBHB
TAF
KBHB 011120Z 0112/0212 00000KT P6SM SKC
     FM011500 21006KT P6SM BKN100
     FM012100 24007KT P6SM VCTS SCT030 BKN060CB
     FM020100 VRB03KT P6SM BKN120
     FM020900 00000KT 2SM BR SCT003
      AMD LTD TO CLD VIS AND WIND=



000
FTUS41 KCAR 011120
TAFPQI
TAF
KPQI 011120Z 0112/0212 22006KT P6SM BKN120
     FM011500 21008KT P6SM VCSH BKN050
     FM011800 22010KT P6SM VCTS SCT025 BKN040CB
     FM012300 25006KT P6SM -SHRA OVC045
     FM020200 VRB03KT 6SM BR SKC
     FM020800 00000KT 3SM BR SCT003
      AMD LTD TO CLD VIS AND WIND=



000
FTUS41 KCAR 011120
TAFBGR
TAF
KBGR 011120Z 0112/0212 19005KT P6SM SCT100
     FM011600 20008KT P6SM BKN060
     FM011800 21010KT P6SM VCTS SCT030 BKN050CB
     FM012300 24006KT P6SM BKN045=



000
FTUS41 KCAR 011120
TAFBHB
TAF
KBHB 011120Z 0112/0212 00000KT P6SM SKC
     FM011500 21006KT P6SM BKN100
     FM012100 24007KT P6SM VCTS SCT030 BKN060CB
     FM020100 VRB03KT P6SM BKN120
     FM020900 00000KT 2SM BR SCT003
      AMD LTD TO CLD VIS AND WIND=



000
FTUS41 KCAR 011120
TAFPQI
TAF
KPQI 011120Z 0112/0212 22006KT P6SM BKN120
     FM011500 21008KT P6SM VCSH BKN050
     FM011800 22010KT P6SM VCTS SCT025 BKN040CB
     FM012300 25006KT P6SM -SHRA OVC045
     FM020200 VRB03KT 6SM BR SKC
     FM020800 00000KT 3SM BR SCT003
      AMD LTD TO CLD VIS AND WIND=



000
FTUS41 KCAR 011120
TAFCAR
TAF
KCAR 011120Z 0112/0212 20006KT P6SM BKN100
     FM011500 21008KT P6SM VCSH BKN050
     FM011800 23010KT P6SM VCTS SCT025 BKN040CB
     FM012300 25006KT P6SM -SHRA OVC050
     FM020200 24003KT 6SM BR SKC
     FM020700 VRB03KT 3SM BR SCT003=



000
FTUS41 KCAR 011120
TAFHUL
TAF
KHUL 011120Z 0112/0212 25006KT P6SM BKN120
     FM011500 21008KT P6SM VCSH BKN060
     FM011800 22010KT P6SM VCTS SCT025 BKN040CB
     FM012200 25007KT P6SM -SHRA OVC045
     FM020200 VRB03KT 6SM BR SKC
     FM020800 00000KT 2SM BR SCT003=



000
FTUS41 KCAR 011120
TAFBGR
TAF
KBGR 011120Z 0112/0212 19005KT P6SM SCT100
     FM011600 20008KT P6SM BKN060
     FM011800 21010KT P6SM VCTS SCT030 BKN050CB
     FM012300 24006KT P6SM BKN045=



000
FTUS41 KCAR 011120
TAFHUL
TAF
KHUL 011120Z 0112/0212 25006KT P6SM BKN120
     FM011500 21008KT P6SM VCSH BKN060
     FM011800 22010KT P6SM VCTS SCT025 BKN040CB
     FM012200 25007KT P6SM -SHRA OVC045
     FM020200 VRB03KT 6SM BR SKC
     FM020800 00000KT 2SM BR SCT003=



000
FTUS41 KCAR 011120
TAFCAR
TAF
KCAR 011120Z 0112/0212 20006KT P6SM BKN100
     FM011500 21008KT P6SM VCSH BKN050
     FM011800 23010KT P6SM VCTS SCT025 BKN040CB
     FM012300 25006KT P6SM -SHRA OVC050
     FM020200 24003KT 6SM BR SKC
     FM020700 VRB03KT 3SM BR SCT003=



000
FTUS41 KCAR 011025 AAB
TAFBHB
TAF AMD
KBHB 011025Z 0110/0206 00000KT P6SM SKC
     FM011500 21006KT P6SM BKN100
     FM012100 24007KT P6SM VCSH BKN060
     FM020100 VRB03KT P6SM BKN120
      AMD LTD TO CLD VIS AND WIND=



000
FTUS41 KCAR 010858 AAA
TAFBHB
TAF AMD
KBHB 010858Z 0109/0206 00000KT 3SM BR SKC
      TEMPO 0109/0111 1 1/2SM BR SCT003
     FM011200 21006KT P6SM BKN100
     FM012100 24007KT P6SM VCSH BKN060
     FM020100 VRB03KT P6SM BKN120
      AMD LTD TO CLD VIS AND WIND=



000
FTUS41 KCAR 010540
TAFPQI
TAF
KPQI 010540Z 0106/0206 22006KT P6SM SCT070
     FM011500 21008KT P6SM VCSH BKN050
     FM011800 22010KT P6SM VCTS SCT025 BKN040CB
     FM012300 25006KT P6SM -SHRA OVC045
     FM020200 VRB03KT 5SM BR SKC
      AMD LTD TO CLD VIS AND WIND=



000
FTUS41 KCAR 010540
TAFBGR
TAF
KBGR 010540Z 0106/0206 25004KT P6SM SCT200
     FM011500 20008KT P6SM VCSH BKN060
     FM011800 21010KT P6SM VCTS SCT030 BKN050CB
     FM012300 24006KT P6SM BKN045=



000
FTUS41 KCAR 010540
TAFBHB
TAF
KBHB 010540Z 0106/0206 VRB03KT P6SM SKC
     FM011600 21010KT P6SM BKN100
     FM012100 24007KT P6SM VCSH BKN060
     FM020100 VRB03KT P6SM BKN120
      AMD LTD TO CLD VIS AND WIND=



000
FTUS41 KCAR 010540
TAFHUL
TAF
KHUL 010540Z 0106/0206 25006KT P6SM SCT070
     FM011500 21008KT P6SM VCSH BKN070
     FM011800 22010KT P6SM VCTS SCT025 BKN040CB
     FM012200 25007KT P6SM -SHRA OVC045
     FM020200 VRB03KT 6SM BR SKC=



000
FTUS41 KCAR 010540
TAFCAR
TAF
KCAR 010540Z 0106/0206 25006KT P6SM SCT070
     FM011500 22008KT P6SM VCSH BKN050
     FM011800 23010KT P6SM VCTS SCT025 BKN040CB
     FM012300 25006KT P6SM -SHRA OVC050
     FM020200 24003KT 4SM BR SKC=



000
FTUS41 KCAR 312325
TAFCAR
TAF
KCAR 312325Z 0100/0124 25006KT P6SM SCT070
     FM011500 24008KT P6SM VCSH BKN050
     FM011800 24010KT P6SM VCTS BKN040CB=



000
FTUS41 KCAR 312325
TAFBGR
TAF
KBGR 312325Z 0100/0124 25006KT P6SM SCT200
     FM011500 24008KT P6SM VCSH BKN060
     FM011800 24010KT P6SM VCTS BKN050CB=



000
FTUS41 KCAR 312325
TAFPQI
TAF
KPQI 312325Z 0100/0124 25006KT P6SM SCT070
     FM011500 24008KT P6SM VCSH BKN050
     FM011800 24010KT P6SM VCTS BKN040CB
      AMD LTD TO CLD VIS AND WIND=



000
FTUS41 KCAR 312325
TAFBHB
TAF
KBHB 312325Z 0100/0124 VRB03KT P6SM SCT200
     FM011500 24008KT P6SM SCT060
     FM011800 24010KT P6SM VCSH BKN050
     FM012000 24010KT P6SM VCTS BKN050CB
      AMD LTD TO CLD VIS AND WIND=



000
FTUS41 KCAR 312325
TAFHUL
TAF
KHUL 312325Z 0100/0124 25006KT P6SM SCT070
     FM011500 24008KT P6SM VCSH BKN050
     FM011800 24010KT P6SM VCTS BKN040CB=



000
FTUS41 KCAR 312325
TAFCAR
TAF
KCAR 312325Z 0100/0124 25006KT P6SM SCT070
     FM011500 24008KT P6SM VCSH BKN050
     FM011800 24010KT P6SM VCTS BKN040CB=



000
FTUS41 KCAR 312325
TAFBGR
TAF
KBGR 312325Z 0100/0124 25006KT P6SM SCT200
     FM011500 24008KT P6SM VCSH BKN060
     FM011800 24010KT P6SM VCTS BKN050CB=



000
FTUS41 KCAR 312325
TAFBHB
TAF
KBHB 312325Z 0100/0124 VRB03KT P6SM SCT200
     FM011500 24008KT P6SM SCT060
     FM011800 24010KT P6SM VCSH BKN050
     FM012000 24010KT P6SM VCTS BKN050CB
      AMD LTD TO CLD VIS AND WIND=



000
FTUS41 KCAR 312325
TAFHUL
TAF
KHUL 312325Z 0100/0124 25006KT P6SM SCT070
     FM011500 24008KT P6SM VCSH BKN050
     FM011800 24010KT P6SM VCTS BKN040CB=



000
FTUS41 KCAR 312325
TAFPQI
TAF
KPQI 312325Z 0100/0124 25006KT P6SM SCT070
     FM011500 24008KT P6SM VCSH BKN050
     FM011800 24010KT P6SM VCTS BKN040CB
      AMD LTD TO CLD VIS AND WIND=



000
FTUS41 KCAR 312254 AAA
TAFCAR
TAF AMD
KCAR 312254Z 3123/0118 25008KT P6SM BKN080
     FM010100 25006KT P6SM SCT200
     FM011400 22007KT P6SM BKN040=



000
FTUS41 KCAR 312254 AAA
TAFCAR
TAF AMD
KCAR 312254Z 3123/0118 25008KT P6SM BKN080
     FM010100 25006KT P6SM SCT200
     FM011400 22007KT P6SM BKN040=



000
FTUS41 KCAR 312242 AAA
TAFPQI
TAF AMD
KPQI 312242Z 3123/0118 25008KT P6SM BKN080
     FM010100 25006KT P6SM SCT200
     FM011400 22007KT P6SM BKN040
      AMD LTD TO CLD VIS AND WIND=



000
FTUS41 KCAR 312242 AAA
TAFPQI
TAF AMD
KPQI 312242Z 3123/0118 25008KT P6SM BKN080
     FM010100 25006KT P6SM SCT200
     FM011400 22007KT P6SM BKN040
      AMD LTD TO CLD VIS AND WIND=



000
FTUS41 KCAR 312202 AAB
TAFBGR
TAF AMD
KBGR 312202Z 3122/0118 25008KT P6SM SCT060
     FM010000 25006KT P6SM SCT200
     FM011200 20008KT P6SM SCT250=



000
FTUS41 KCAR 312128 AAA
TAFBHB
TAF AMD
KBHB 312128Z 3121/0118 21008KT P6SM SCT070
     FM010000 23006KT P6SM SCT200
      AMD LTD TO CLD VIS AND WIND=



000
FTUS41 KCAR 312128 AAA
TAFBHB
TAF AMD
KBHB 312128Z 3121/0118 21008KT P6SM SCT070
     FM010000 23006KT P6SM SCT200
      AMD LTD TO CLD VIS AND WIND=



000
FTUS41 KCAR 311923 AAA
TAFBGR
TAF AMD
KBGR 311923Z 3119/0118 27010G20KT P6SM SCT060
     FM312300 26005KT P6SM SCT250
     FM011200 20008KT P6SM SCT250=



000
FTUS41 KCAR 311922 AAA
TAFHUL
TAF AMD
KHUL 311922Z 3119/0118 25010G20KT P6SM SCT050
     FM312300 26006KT P6SM SCT250
     FM011400 22007KT P6SM BKN045=



000
FTUS41 KCAR 311733
TAFBGR
TAF
KBGR 311733Z 3118/0118 25010G20KT P6SM SCT060
     FM312300 26005KT P6SM SCT250
     FM011200 20008KT P6SM SCT250=



000
FTUS41 KCAR 311733
TAFPQI
TAF
KPQI 311733Z 3118/0118 24010G20KT P6SM VCTS SCT050CB
     FM312300 25005KT P6SM SCT250
     FM011400 22007KT P6SM BKN040
      AMD LTD TO CLD VIS AND WIND=



000
FTUS41 KCAR 311733
TAFHUL
TAF
KHUL 311733Z 3118/0118 24012KT P6SM SCT050
     FM312300 26006KT P6SM SCT250
     FM011400 22007KT P6SM BKN045=



000
FTUS41 KCAR 311733
TAFBHB
TAF
KBHB 311733Z 3118/0118 28009G18KT P6SM FEW060
     FM312300 23005KT P6SM FEW250
      AMD LTD TO CLD VIS AND WIND=



000
FTUS41 KCAR 311733
TAFCAR
TAF
KCAR 311733Z 3118/0118 23011KT P6SM VCTS BKN050CB
     FM312300 25007KT P6SM SCT250
     FM011400 22007KT P6SM BKN040=



000
FTUS41 KCAR 311733
TAFHUL
TAF
KHUL 311733Z 3118/0118 24012KT P6SM SCT050
     FM312300 26006KT P6SM SCT250
     FM011400 22007KT P6SM BKN045=



000
FTUS41 KCAR 311733
TAFPQI
TAF
KPQI 311733Z 3118/0118 24010G20KT P6SM VCTS SCT050CB
     FM312300 25005KT P6SM SCT250
     FM011400 22007KT P6SM BKN040
      AMD LTD TO CLD VIS AND WIND=



000
FTUS41 KCAR 311733
TAFBGR
TAF
KBGR 311733Z 3118/0118 25010G20KT P6SM SCT060
     FM312300 26005KT P6SM SCT250
     FM011200 20008KT P6SM SCT250=



000
FTUS41 KCAR 311733
TAFBHB
TAF
KBHB 311733Z 3118/0118 28009G18KT P6SM FEW060
     FM312300 23005KT P6SM FEW250
      AMD LTD TO CLD VIS AND WIND=



000
FTUS41 KCAR 311233 AAA
TAFHUL
TAF AMD
KHUL 311233Z 3113/0112 21005KT 5SM BR SCT006
     FM311330 25010KT P6SM SCT250
     FM010000 25006KT P6SM SKC
     FM010900 20004KT 2SM BR SCT003=



000
FTUS41 KCAR 311232 AAB
TAFBHB
TAF AMD
KBHB 311232Z 3113/0112 17006KT P6SM SCT002 BKN070
     FM311500 25010G20KT P6SM SKC
     FM312300 24006KT P6SM SKC
     FM010900 18004KT 2SM BR SCT003
      AMD LTD TO CLD VIS AND WIND=



000
FTUS41 KCAR 311232 AAB
TAFBHB
TAF AMD
KBHB 311232Z 3113/0112 17006KT P6SM SCT002 BKN070
     FM311500 25010G20KT P6SM SKC
     FM312300 24006KT P6SM SKC
     FM010900 18004KT 2SM BR SCT003
      AMD LTD TO CLD VIS AND WIND=



000
FTUS41 KCAR 311201 AAA
TAFBHB
TAF AMD
KBHB 311201Z 3112/0112 17006KT 3SM BR BKN002
     FM311500 25010G20KT P6SM SKC
     FM312300 24006KT P6SM SKC
     FM010900 18004KT 2SM BR SCT003
      AMD LTD TO CLD VIS AND WIND=



000
FTUS41 KCAR 311201 AAA
TAFBHB
TAF AMD
KBHB 311201Z 3112/0112 17006KT 3SM BR BKN002
     FM311500 25010G20KT P6SM SKC
     FM312300 24006KT P6SM SKC
     FM010900 18004KT 2SM BR SCT003
      AMD LTD TO CLD VIS AND WIND=



000
FTUS41 KCAR 311133
TAFPQI
TAF
KPQI 311133Z 3112/0112 23006KT P6SM SCT015
     FM311700 24010G20KT P6SM BKN070
     FM010000 VRB03KT P6SM SCT250
     FM010900 19004KT 3SM BR SCT003 BKN200
      AMD LTD TO CLD VIS AND WIND=



000
FTUS41 KCAR 311133
TAFBGR
TAF
KBGR 311133Z 3112/0112 24006KT P6SM SCT003 BKN070
     FM311600 27010G20KT P6SM SCT050
     FM010000 VRB03KT P6SM SKC
     FM010900 18004KT 3SM BR SCT003=



000
FTUS41 KCAR 311133
TAFBHB
TAF
KBHB 311133Z 3112/0112 18004KT 1/4SM FG OVC002
     FM311300 19006KT 3SM BR BKN004
     FM311500 25010G20KT P6SM SKC
     FM312300 24006KT P6SM SKC
     FM010900 18004KT 2SM BR SCT003
      AMD LTD TO CLD VIS AND WIND=



000
FTUS41 KCAR 311133
TAFCAR
TAF
KCAR 311133Z 3112/0112 20005KT P6SM SCT005
      TEMPO 3112/3113 3SM BR OVC004
     FM311300 21006KT P6SM SCT070
     FM311600 26010KT P6SM BKN120
     FM010000 VRB03KT P6SM SKC
     FM010900 20004KT 3SM BR BKN200=



000
FTUS41 KCAR 311133
TAFHUL
TAF
KHUL 311133Z 3112/0112 19004KT 4SM BR BKN003
     FM311300 21005KT 6SM BR BKN007
     FM311500 25010KT P6SM SCT250
     FM010000 25006KT P6SM SKC
     FM010900 20004KT 2SM BR SCT003=



000
FTUS41 KCAR 311046 AAB
TAFPQI
TAF AMD
KPQI 311046Z 3111/0106 20005KT 3SM BR SCT003
     FM311200 23006KT P6SM BKN035
     FM311700 24010G20KT P6SM SCT025 BKN070
     FM312100 27012KT P6SM SCT250
      AMD LTD TO CLD VIS AND WIND=



000
FTUS41 KCAR 311046 AAB
TAFPQI
TAF AMD
KPQI 311046Z 3111/0106 20005KT 3SM BR SCT003
     FM311200 23006KT P6SM BKN035
     FM311700 24010G20KT P6SM SCT025 BKN070
     FM312100 27012KT P6SM SCT250
      AMD LTD TO CLD VIS AND WIND=



000
FTUS41 KCAR 310956 AAC
TAFBGR
TAF AMD
KBGR 310956Z 3110/0106 VRB03KT 2SM BR SCT001 BKN050
      TEMPO 3110/3111 3/4SM BR OVC002
     FM311100 24006KT 4SM BR SCT003
     FM311300 26007KT P6SM SCT035
     FM311600 27010G20KT P6SM SCT050=



000
FTUS41 KCAR 310924 AAA
TAFPQI
TAF AMD
KPQI 310924Z 3109/0106 18005KT 1/4SM FG OVC001
     FM311100 20005KT 1SM BR SCT001 OVC006
     FM311300 23006KT P6SM BKN035
     FM311700 24010G20KT P6SM SCT025 BKN070
     FM312100 27012KT P6SM SCT250
      AMD LTD TO CLD VIS AND WIND=



000
FTUS41 KCAR 310922 AAC
TAFCAR
TAF AMD
KCAR 310922Z 3109/0106 18005KT 1/4SM FG SCT003 BKN100
      TEMPO 3110/3111 OVC003
     FM311100 20005KT 2SM BR SCT005 BKN025
     FM311300 21006KT P6SM BKN035
     FM311600 25007KT P6SM BKN120=



000
FTUS41 KCAR 310909 AAD
TAFBHB
TAF AMD
KBHB 310909Z 3109/0106 22005KT 1/4SM FG BKN002
     FM311000 22005KT 1SM BR BKN001
     FM311200 22004KT 5SM BR SCT002
     FM311500 25010G20KT P6SM FEW250
     FM312300 24007KT P6SM SKC
      AMD LTD TO CLD VIS AND WIND=



000
FTUS41 KCAR 310908 AAB
TAFBGR
TAF AMD
KBGR 310908Z 3109/0106 VRB03KT 1/4SM FG BKN001
     FM311100 24006KT 4SM BR SCT003
     FM311300 26007KT P6SM SCT035
     FM311600 27010G20KT P6SM SCT050=



000
FTUS41 KCAR 310908 AAB
TAFBGR
TAF AMD
KBGR 310908Z 3109/0106 VRB03KT 1/4SM FG BKN001
     FM311100 24006KT 4SM BR SCT003
     FM311300 26007KT P6SM SCT035
     FM311600 27010G20KT P6SM SCT050=



000
FTUS41 KCAR 310831 AAA
TAFHUL
TAF AMD
KHUL 310831Z 3109/0106 19004KT 3SM BR BKN003
     FM311000 19004KT 5SM BR SCT003 BKN025
     FM311300 21005KT P6SM BKN030
     FM311500 25010KT P6SM SCT250=



000
FTUS41 KCAR 310729 AAA
TAFBGR
TAF AMD
KBGR 310729Z 3107/0106 VRB03KT 1/4SM FG OVC001
     FM310900 VRB03KT 3/4SM BR BKN002
     FM311100 24006KT 4SM BR SCT003
     FM311300 26007KT P6SM SCT035
     FM311600 27010G20KT P6SM SCT050=



000
FTUS41 KCAR 310727 AAC
TAFBHB
TAF AMD
KBHB 310727Z 3107/0106 22005KT 3SM BR BKN003
     FM311000 22005KT 1SM BR BKN001
     FM311200 22004KT 5SM BR SCT002
     FM311500 25010G20KT P6SM FEW250
     FM312300 24007KT P6SM SKC
      AMD LTD TO CLD VIS AND WIND=



000
FTUS41 KCAR 310725 AAB
TAFBHB
TAF AMD
KBHB 310725Z 3107/0106 22005KT 1/4SM FG BKN003
     FM311000 22005KT 3/4SM BR BKN001
     FM311200 22004KT 5SM BR SCT002
     FM311500 25010G20KT P6SM FEW250
     FM312300 24007KT P6SM SKC
      AMD LTD TO CLD VIS AND WIND=



000
FTUS41 KCAR 310640 AAA
TAFCAR
TAF AMD
KCAR 310640Z 3107/0106 18006KT 3SM BR SCT007 BKN025
     FM310800 18005KT 2SM BR SCT003 BKN015
     FM311200 20005KT 6SM BR BKN025
     FM311400 21006KT P6SM BKN035
     FM311600 25007KT P6SM BKN120=



000
FTUS41 KCAR 310640 AAA
TAFBHB
TAF AMD
KBHB 310640Z 3107/0106 22005KT 3SM BR BKN007
     FM310800 22005KT 1SM BR BKN003
     FM311000 22005KT 3/4SM BR BKN001
     FM311200 22004KT 5SM BR SCT002
     FM311500 25010G20KT P6SM FEW250
     FM312300 24007KT P6SM SKC
      AMD LTD TO CLD VIS AND WIND=



000
FTUS41 KCAR 310550
TAFCAR
TAF
KCAR 310550Z 3106/0106 18006KT 5SM BR BKN007
     FM310800 18005KT 2SM BR BKN004
     FM311000 20005KT 6SM BR BKN010
     FM311400 21006KT P6SM BKN035
     FM311600 25007KT P6SM BKN120=



000
FTUS41 KCAR 310550
TAFHUL
TAF
KHUL 310550Z 3106/0106 18005KT 4SM BR SCT003 BKN015
     FM310800 19004KT 2SM BR BKN010
     FM311000 19004KT 3SM BR BKN003
     FM311300 21005KT P6SM BKN030
     FM311500 25010KT P6SM SCT250=



000
FTUS41 KCAR 310550
TAFBHB
TAF
KBHB 310550Z 3106/0106 22005KT 5SM BR BKN015
     FM310800 22005KT 1SM BR BKN001
     FM311000 22005KT 3/4SM BR BKN001
     FM311200 22004KT 5SM BR SCT002
     FM311500 25010G20KT P6SM FEW250
     FM312300 24007KT P6SM SKC
      AMD LTD TO CLD VIS AND WIND=



000
FTUS41 KCAR 310550
TAFBGR
TAF
KBGR 310550Z 3106/0106 VRB03KT 3SM BR OVC003
     FM310800 VRB03KT 3/4SM BR BKN002
     FM311100 24006KT 4SM BR SCT003
     FM311300 26007KT P6SM SCT035
     FM311600 27010G20KT P6SM SCT050=



000
FTUS41 KCAR 310550
TAFPQI
TAF
KPQI 310550Z 3106/0106 18005KT 6SM BR BKN070
     FM310800 18005KT 2SM BR BKN010
     FM311300 23006KT P6SM BKN035
     FM311700 24010G20KT P6SM SCT025 BKN070
     FM312100 27012KT P6SM SCT250
      AMD LTD TO CLD VIS AND WIND=



000
FTUS41 KCAR 310550
TAFHUL
TAF
KHUL 310550Z 3106/0106 18005KT 4SM BR SCT003 BKN015
     FM310800 19004KT 2SM BR BKN010
     FM311000 19004KT 3SM BR BKN003
     FM311300 21005KT P6SM BKN030
     FM311500 25010KT P6SM SCT250=



000
FTUS41 KCAR 310550
TAFPQI
TAF
KPQI 310550Z 3106/0106 18005KT 6SM BR BKN070
     FM310800 18005KT 2SM BR BKN010
     FM311300 23006KT P6SM BKN035
     FM311700 24010G20KT P6SM SCT025 BKN070
     FM312100 27012KT P6SM SCT250
      AMD LTD TO CLD VIS AND WIND=



000
FTUS41 KCAR 310550
TAFBHB
TAF
KBHB 310550Z 3106/0106 22005KT 5SM BR BKN015
     FM310800 22005KT 1SM BR BKN001
     FM311000 22005KT 3/4SM BR BKN001
     FM311200 22004KT 5SM BR SCT002
     FM311500 25010G20KT P6SM FEW250
     FM312300 24007KT P6SM SKC
      AMD LTD TO CLD VIS AND WIND=



000
FTUS41 KCAR 310550
TAFCAR
TAF
KCAR 310550Z 3106/0106 18006KT 5SM BR BKN007
     FM310800 18005KT 2SM BR BKN004
     FM311000 20005KT 6SM BR BKN010
     FM311400 21006KT P6SM BKN035
     FM311600 25007KT P6SM BKN120=



000
FTUS41 KCAR 310550
TAFBGR
TAF
KBGR 310550Z 3106/0106 VRB03KT 3SM BR OVC003
     FM310800 VRB03KT 3/4SM BR BKN002
     FM311100 24006KT 4SM BR SCT003
     FM311300 26007KT P6SM SCT035
     FM311600 27010G20KT P6SM SCT050=



000
FTUS41 KCAR 310529 AAC
TAFBGR
TAF AMD
KBGR 310529Z 3105/3124 20004KT 2SM BR OVC003
     FM310800 24004KT 1SM BR OVC007
     FM311300 26007KT P6SM SCT035
     FM311600 26010G17KT P6SM SCT060=



000
FTUS41 KCAR 310529 AAC
TAFBGR
TAF AMD
KBGR 310529Z 3105/3124 20004KT 2SM BR OVC003
     FM310800 24004KT 1SM BR OVC007
     FM311300 26007KT P6SM SCT035
     FM311600 26010G17KT P6SM SCT060=



000
FTUS41 KCAR 310527 AAB
TAFHUL
TAF AMD
KHUL 310527Z 3105/3118 18005KT 3SM BR OVC003
     FM310800 22004KT 1 1/2SM BR BKN003
     FM311300 21005KT P6SM BKN035
     FM311600 25010G16KT P6SM SCT060=



000
FTUS41 KCAR 310418 AAD
TAFBHB
TAF AMD
KBHB 310418Z 3104/3124 19004KT 6SM BR SCT003
     FM310600 VRB03KT 2SM BR OVC002
     FM311300 26005KT P6SM SCT050
      AMD LTD TO CLD VIS AND WIND=



000
FTUS41 KCAR 310418 AAD
TAFBHB
TAF AMD
KBHB 310418Z 3104/3124 19004KT 6SM BR SCT003
     FM310600 VRB03KT 2SM BR OVC002
     FM311300 26005KT P6SM SCT050
      AMD LTD TO CLD VIS AND WIND=



000
FTUS41 KCAR 310155 AAB
TAFBGR
TAF AMD
KBGR 310155Z 3102/3124 20011KT 4SM TSRA BR SCT007 OVC030CB
     FM310300 17007KT 5SM -SHRA OVC020
     FM310400 20004KT 5SM BR OVC010
     FM310800 24004KT 3SM BR OVC008
     FM311300 26007KT P6SM SCT035
     FM311600 26010G17KT P6SM SCT060=



000
FTUS41 KCAR 302344 AAC
TAFBHB
TAF AMD
KBHB 302344Z 3100/3118 17003KT 4SM BR OVC005
     FM310200 VRB03KT 2SM BR OVC002
     FM311300 26005KT P6SM SCT050
      AMD LTD TO CLD VIS AND WIND=



000
FTUS41 KCAR 302344 AAD
TAFCAR
TAF AMD
KCAR 302344Z 3100/3118 17009KT P6SM VCSH OVC080
     FM310100 18007KT 6SM -SHRA BR OVC050
     FM310300 18006KT 5SM -SHRA BR OVC030
     FM310500 18006KT 4SM BR OVC008
     FM311300 21006KT P6SM BKN035
     FM311700 24010G16KT P6SM BKN060=



000
FTUS41 KCAR 302344 AAA
TAFPQI
TAF AMD
KPQI 302344Z 3100/3118 17009KT P6SM VCSH OVC080
     FM310100 18007KT P6SM -SHRA OVC050
     FM310300 18006KT 5SM -SHRA BR OVC030
     FM310500 18006KT 5SM BR OVC010
     FM311300 21006KT P6SM BKN035
     FM311700 24010G16KT P6SM BKN060
      AMD LTD TO CLD VIS AND WIND=



000
FTUS41 KCAR 302344 AAA
TAFBGR
TAF AMD
KBGR 302344Z 3100/3118 17010KT P6SM VCSH OVC100
     FM310130 17007KT 5SM -SHRA OVC035
     FM310400 20004KT 5SM BR OVC010
     FM310800 24004KT 3SM BR OVC008
     FM311300 26007KT P6SM SCT035
     FM311600 26010G17KT P6SM SCT060=



000
FTUS41 KCAR 302344 AAA
TAFHUL
TAF AMD
KHUL 302344Z 3100/3118 17009KT P6SM OVC100
     FM310300 18006KT 5SM -SHRA BR OVC030
     FM310500 18005KT 3SM BR OVC007
     FM311300 21005KT P6SM BKN035
     FM311600 25010G16KT P6SM SCT060=



000
FTUS41 KCAR 302344 AAC
TAFBHB
TAF AMD
KBHB 302344Z 3100/3118 17003KT 4SM BR OVC005
     FM310200 VRB03KT 2SM BR OVC002
     FM311300 26005KT P6SM SCT050
      AMD LTD TO CLD VIS AND WIND=



000
FTUS41 KCAR 302344 AAD
TAFCAR
TAF AMD
KCAR 302344Z 3100/3118 17009KT P6SM VCSH OVC080
     FM310100 18007KT 6SM -SHRA BR OVC050
     FM310300 18006KT 5SM -SHRA BR OVC030
     FM310500 18006KT 4SM BR OVC008
     FM311300 21006KT P6SM BKN035
     FM311700 24010G16KT P6SM BKN060=



000
FTUS41 KCAR 302344 AAA
TAFHUL
TAF AMD
KHUL 302344Z 3100/3118 17009KT P6SM OVC100
     FM310300 18006KT 5SM -SHRA BR OVC030
     FM310500 18005KT 3SM BR OVC007
     FM311300 21005KT P6SM BKN035
     FM311600 25010G16KT P6SM SCT060=



000
FTUS41 KCAR 302344 AAA
TAFPQI
TAF AMD
KPQI 302344Z 3100/3118 17009KT P6SM VCSH OVC080
     FM310100 18007KT P6SM -SHRA OVC050
     FM310300 18006KT 5SM -SHRA BR OVC030
     FM310500 18006KT 5SM BR OVC010
     FM311300 21006KT P6SM BKN035
     FM311700 24010G16KT P6SM BKN060
      AMD LTD TO CLD VIS AND WIND=



000
FTUS41 KCAR 302344 AAA
TAFBGR
TAF AMD
KBGR 302344Z 3100/3118 17010KT P6SM VCSH OVC100
     FM310130 17007KT 5SM -SHRA OVC035
     FM310400 20004KT 5SM BR OVC010
     FM310800 24004KT 3SM BR OVC008
     FM311300 26007KT P6SM SCT035
     FM311600 26010G17KT P6SM SCT060=



000
FTUS41 KCAR 302146 AAC
TAFCAR
TAF AMD
KCAR 302146Z 3022/3118 17010KT P6SM OVC100
      TEMPO 3022/3023 26015G25KT
     FM310200 17010KT 5SM -SHRA BKN050
     FM310400 18006KT 5SM BR SCT008 BKN015
     FM310900 19005KT 2SM BR OVC008
     FM311400 22007KT P6SM SCT008 BKN250=



000
FTUS41 KCAR 302120 AAB
TAFBHB
TAF AMD
KBHB 302120Z 3021/3118 VRB03KT 3SM BR SCT002
     FM302300 21005KT 1SM BR BKN002
     FM310600 22005KT 1/2SM FG OVC001
     FM311300 23005KT P6SM SCT001 SCT250
      AMD LTD TO CLD VIS AND WIND=



000
FTUS41 KCAR 302112 AAA
TAFBHB
TAF AMD
KBHB 302112Z 3021/3118 09007KT P6SM SCT250
     FM310100 21005KT 2SM BR BKN003
     FM310600 22005KT 1/2SM FG OVC001
     FM311300 23005KT P6SM SCT001 SCT250
      AMD LTD TO CLD VIS AND WIND=



000
FTUS41 KCAR 301725
TAFPQI
TAF
KPQI 301725Z 3018/3118 17010KT P6SM BKN250
     FM310000 17006KT 5SM -SHRA BKN050
     FM310400 18006KT 5SM BR SCT006 BKN015
     FM310900 18005KT 2SM BR OVC006
     FM311400 22007KT P6SM SCT006 BKN250
      AMD LTD TO CLD VIS AND WIND=



000
FTUS41 KCAR 301725
TAFHUL
TAF
KHUL 301725Z 3018/3118 18010KT P6SM BKN250
     FM310100 17007KT 5SM -SHRA BKN050
     FM310400 18005KT 5SM BR OVC007
     FM310800 19004KT 2SM BR OVC003
     FM311300 22005KT P6SM SCT003 BKN250=



000
FTUS41 KCAR 301725
TAFBGR
TAF
KBGR 301725Z 3018/3118 17009KT P6SM SCT250
     FM310100 18005KT 5SM -SHRA SCT007 BKN050
     FM310600 VRB03KT 3/4SM BR SCT003
      TEMPO 3111/3113 2SM BR
     FM311300 25006KT P6SM SCT003 SCT250=



000
FTUS41 KCAR 301725
TAFCAR
TAF
KCAR 301725Z 3018/3118 17010KT P6SM BKN250
     FM302300 17010KT 5SM -SHRA BKN050
     FM310400 18006KT 5SM BR SCT008 BKN015
     FM310900 19005KT 2SM BR OVC008
     FM311400 22007KT P6SM SCT008 BKN250=



000
FTUS41 KCAR 301725
TAFBHB
TAF
KBHB 301725Z 3018/3118 09007KT P6SM SCT250
     FM310400 21005KT 2SM BR BKN003
     FM310600 22005KT 1/2SM FG OVC001
     FM311300 23005KT P6SM SCT001 SCT250
      AMD LTD TO CLD VIS AND WIND=



000
FTUS41 KCAR 301129
TAFBGR
TAF
KBGR 301129Z 3012/3112 15004KT P6SM SCT250
     FM301800 17008KT P6SM SCT250
     FM310100 18006KT 3SM -RA BR SCT007 BKN050
     FM310300 18005KT 2SM BR SCT003 BKN015
     FM310600 21004KT 3/4SM BR SCT003=



000
FTUS41 KCAR 301129
TAFBHB
TAF
KBHB 301129Z 3012/3112 13005KT 1/2SM FG OVC002
     FM301300 16004KT 6SM BR SCT001
     FM301400 17008KT P6SM BKN250
     FM310000 18006KT 6SM -RA SCT010 OVC060
     FM310400 18005KT 2SM -RA BR BKN006
     FM310600 21004KT 1/2SM FG OVC001
      AMD LTD TO CLD VIS AND WIND=



000
FTUS41 KCAR 301129
TAFPQI
TAF
KPQI 301129Z 3012/3112 VRB03KT P6SM SCT250
     FM302300 17007KT 3SM -SHRA SCT025 OVC060
     FM310200 17005KT 5SM BR SCT007 BKN015
     FM310600 18005KT 2SM BR BKN007
      AMD LTD TO CLD VIS AND WIND=



000
FTUS41 KCAR 301129
TAFCAR
TAF
KCAR 301129Z 3012/3112 17010KT P6SM BKN250
     FM302200 17006KT 3SM -SHRA OVC050
     FM310200 17004KT 5SM BR SCT007 BKN015
     FM310400 19004KT 2SM BR BKN006
     FM310700 18004KT 1 1/2SM BR OVC001=



000
FTUS41 KCAR 301129
TAFHUL
TAF
KHUL 301129Z 3012/3112 15006KT P6SM SCT250
     FM301800 17009KT P6SM BKN250
     FM310000 17005KT 3SM -SHRA OVC060
     FM310200 18004KT 2SM BR OVC010
     FM310400 18005KT 4SM BR BKN007
     FM310700 20004KT 1 1/2SM BR OVC003=



000
FTUS41 KCAR 301129
TAFBHB
TAF
KBHB 301129Z 3012/3112 13005KT 1/2SM FG OVC002
     FM301300 16004KT 6SM BR SCT001
     FM301400 17008KT P6SM BKN250
     FM310000 18006KT 6SM -RA SCT010 OVC060
     FM310400 18005KT 2SM -RA BR BKN006
     FM310600 21004KT 1/2SM FG OVC001
      AMD LTD TO CLD VIS AND WIND=



000
FTUS41 KCAR 301129
TAFHUL
TAF
KHUL 301129Z 3012/3112 15006KT P6SM SCT250
     FM301800 17009KT P6SM BKN250
     FM310000 17005KT 3SM -SHRA OVC060
     FM310200 18004KT 2SM BR OVC010
     FM310400 18005KT 4SM BR BKN007
     FM310700 20004KT 1 1/2SM BR OVC003=



000
FTUS41 KCAR 301129
TAFBGR
TAF
KBGR 301129Z 3012/3112 15004KT P6SM SCT250
     FM301800 17008KT P6SM SCT250
     FM310100 18006KT 3SM -RA BR SCT007 BKN050
     FM310300 18005KT 2SM BR SCT003 BKN015
     FM310600 21004KT 3/4SM BR SCT003=



000
FTUS41 KCAR 301129
TAFCAR
TAF
KCAR 301129Z 3012/3112 17010KT P6SM BKN250
     FM302200 17006KT 3SM -SHRA OVC050
     FM310200 17004KT 5SM BR SCT007 BKN015
     FM310400 19004KT 2SM BR BKN006
     FM310700 18004KT 1 1/2SM BR OVC001=



000
FTUS41 KCAR 301129
TAFPQI
TAF
KPQI 301129Z 3012/3112 VRB03KT P6SM SCT250
     FM302300 17007KT 3SM -SHRA SCT025 OVC060
     FM310200 17005KT 5SM BR SCT007 BKN015
     FM310600 18005KT 2SM BR BKN007
      AMD LTD TO CLD VIS AND WIND=



000
FTUS41 KCAR 301106 AAD
TAFBHB
TAF AMD
KBHB 301106Z 3011/3106 13005KT 1SM BR BKN002
      TEMPO 3011/3013 1/2SM FG OVC001
     FM301900 17008KT P6SM BKN250
     FM310000 18006KT 6SM -RA SCT010 OVC060
     FM310400 18005KT 2SM -RA BR BKN002
      AMD LTD TO CLD VIS AND WIND=



000
FTUS41 KCAR 301106 AAD
TAFBHB
TAF AMD
KBHB 301106Z 3011/3106 13005KT 1SM BR BKN002
      TEMPO 3011/3013 1/2SM FG OVC001
     FM301900 17008KT P6SM BKN250
     FM310000 18006KT 6SM -RA SCT010 OVC060
     FM310400 18005KT 2SM -RA BR BKN002
      AMD LTD TO CLD VIS AND WIND=



000
FTUS41 KCAR 301008 AAC
TAFBHB
TAF AMD
KBHB 301008Z 3010/3106 12004KT 6SM BR SCT002
     FM301100 13005KT P6SM SCT250
     FM301900 17008KT P6SM BKN250
     FM310000 18006KT 6SM -RA SCT010 OVC060
     FM310400 18005KT 2SM -RA BR BKN002
      AMD LTD TO CLD VIS AND WIND=



000
FTUS41 KCAR 300907 AAD
TAFCAR
TAF AMD
KCAR 300907Z 3009/3106 00000KT 1SM BR BKN002
      TEMPO 3009/3010 1/2SM FG BKN001
     FM301000 15005KT 2SM BR BKN002
     FM301100 17010KT P6SM BKN250
     FM302200 17006KT 3SM -SHRA OVC050
     FM310200 17004KT 5SM BR SCT007 BKN100
     FM310400 19004KT 2SM BR BKN006=



000
FTUS41 KCAR 300902 AAC
TAFPQI
TAF AMD
KPQI 300902Z 3009/3106 00000KT P6SM SCT003
     FM301000 14004KT 3SM BR SCT002
     FM301200 16010KT P6SM SCT250
     FM302300 17007KT 3SM -SHRA SCT025 OVC060
     FM310200 17005KT 5SM BR SCT007 BKN100
     FM310400 18005KT 2SM BR BKN005
      AMD LTD TO CLD VIS AND WIND=



000
FTUS41 KCAR 300843 AAB
TAFBHB
TAF AMD
KBHB 300843Z 3009/3106 00000KT 5SM BR SCT003
     FM301000 12004KT 1SM BR BKN002
     FM301200 13005KT P6SM SCT250
     FM301900 17008KT P6SM BKN250
     FM310000 18006KT 6SM -RA SCT010 OVC060
     FM310400 18005KT 2SM -RA BR BKN002
      AMD LTD TO CLD VIS AND WIND=



000
FTUS41 KCAR 300843 AAB
TAFBHB
TAF AMD
KBHB 300843Z 3009/3106 00000KT 5SM BR SCT003
     FM301000 12004KT 1SM BR BKN002
     FM301200 13005KT P6SM SCT250
     FM301900 17008KT P6SM BKN250
     FM310000 18006KT 6SM -RA SCT010 OVC060
     FM310400 18005KT 2SM -RA BR BKN002
      AMD LTD TO CLD VIS AND WIND=



000
FTUS41 KCAR 300838 AAB
TAFCAR
TAF AMD
KCAR 300838Z 3009/3106 00000KT 3SM BR SCT002
      TEMPO 3009/3010 1SM BR BKN002
     FM301000 15005KT 2SM BR BKN002
     FM301200 17010KT P6SM BKN250
     FM302200 17006KT 3SM -SHRA OVC050
     FM310200 17004KT 5SM BR SCT007 BKN100
     FM310400 19004KT 2SM BR BKN006=



000
FTUS41 KCAR 300653 AAA
TAFBHB
TAF AMD
KBHB 300653Z 3007/3106 00000KT 3SM BR SCT003
     FM300900 00000KT 1SM BR SCT003
     FM301200 13005KT P6SM SCT250
     FM301900 17008KT P6SM BKN250
     FM310000 18006KT 6SM -RA SCT010 OVC060
     FM310400 18005KT 2SM -RA BR BKN002
      AMD LTD TO CLD VIS AND WIND=



000
FTUS41 KCAR 300620 AAB
TAFPQI
TAF AMD
KPQI 300620Z 3006/3106 00000KT P6SM SKC
     FM300800 14004KT 3SM BR SCT003
     FM301200 16010KT P6SM SCT250
     FM302300 17007KT 3SM -SHRA SCT025 OVC060
     FM310200 17005KT 5SM BR SCT007 BKN100
     FM310400 18005KT 2SM BR BKN005
      AMD LTD TO CLD VIS AND WIND=



000
FTUS41 KCAR 300620 AAB
TAFPQI
TAF AMD
KPQI 300620Z 3006/3106 00000KT P6SM SKC
     FM300800 14004KT 3SM BR SCT003
     FM301200 16010KT P6SM SCT250
     FM302300 17007KT 3SM -SHRA SCT025 OVC060
     FM310200 17005KT 5SM BR SCT007 BKN100
     FM310400 18005KT 2SM BR BKN005
      AMD LTD TO CLD VIS AND WIND=



000
FTUS41 KCAR 300549 AAA
TAFPQI
TAF AMD
KPQI 300549Z 3006/3106 00000KT 1 1/2SM BR SKC
     FM300800 14004KT 3SM BR SCT003
     FM301200 16010KT P6SM SCT250
     FM302300 17007KT 3SM -SHRA SCT025 OVC060
     FM310200 17005KT 5SM BR SCT007 BKN100
     FM310400 18005KT 2SM BR BKN005
      AMD LTD TO CLD VIS AND WIND=



000
FTUS41 KCAR 300549 AAA
TAFPQI
TAF AMD
KPQI 300549Z 3006/3106 00000KT 1 1/2SM BR SKC
     FM300800 14004KT 3SM BR SCT003
     FM301200 16010KT P6SM SCT250
     FM302300 17007KT 3SM -SHRA SCT025 OVC060
     FM310200 17005KT 5SM BR SCT007 BKN100
     FM310400 18005KT 2SM BR BKN005
      AMD LTD TO CLD VIS AND WIND=



000
FTUS41 KCAR 300548
TAFPQI
TAF
KPQI 300548Z 3006/3106 00000KT P6SM SKC
     FM301200 16010KT P6SM SCT250
     FM302300 17007KT 3SM -SHRA SCT025 OVC060
     FM310200 17005KT 5SM BR SCT007 BKN100
     FM310400 18005KT 2SM BR BKN005
      AMD LTD TO CLD VIS AND WIND=



000
FTUS41 KCAR 300548
TAFBHB
TAF
KBHB 300548Z 3006/3106 00000KT P6SM SKC
     FM300900 00000KT 3SM BR SCT003
     FM301200 13005KT P6SM SCT250
     FM301900 17008KT P6SM BKN250
     FM310000 18006KT 6SM -RA SCT010 OVC060
     FM310400 18005KT 2SM -RA BR BKN002
      AMD LTD TO CLD VIS AND WIND=



000
FTUS41 KCAR 300548
TAFBGR
TAF
KBGR 300548Z 3006/3106 00000KT P6SM SKC
     FM301000 VRB03KT 4SM BR SKC
     FM301200 15004KT P6SM SCT250
     FM301800 17008KT P6SM SCT250
     FM310200 18006KT 3SM BR SCT007 BKN120
     FM310400 18005KT 1 1/2SM BR BKN003=



000
FTUS41 KCAR 300548
TAFCAR
TAF
KCAR 300548Z 3006/3106 00000KT P6SM SKC
     FM301000 15005KT 3SM BR SCT250
     FM301200 17010KT P6SM BKN250
     FM302200 17006KT 3SM -SHRA OVC050
     FM310200 17004KT 5SM BR SCT007 BKN100
     FM310400 19004KT 2SM BR BKN006=



000
FTUS41 KCAR 300548
TAFHUL
TAF
KHUL 300548Z 3006/3106 00000KT P6SM SKC
     FM301200 15006KT P6SM SCT250
     FM301800 17009KT P6SM BKN250
     FM310000 17005KT 3SM -SHRA OVC060
     FM310200 18004KT 3SM BR SCT007 OVC070
     FM310400 18005KT 2SM BR SCT005 BKN010=



000
FTUS41 KCAR 300511 AAA
TAFBHB
TAF AMD
KBHB 300511Z 3005/3024 03004KT P6SM SCT003
     FM300700 18005KT 3SM BR BKN002
     FM300900 18005KT 1SM BR OVC002
     FM301200 16007KT P6SM BKN120
      AMD LTD TO CLD VIS AND WIND=



000
FTUS41 KCAR 300511 AAA
TAFBHB
TAF AMD
KBHB 300511Z 3005/3024 03004KT P6SM SCT003
     FM300700 18005KT 3SM BR BKN002
     FM300900 18005KT 1SM BR OVC002
     FM301200 16007KT P6SM BKN120
      AMD LTD TO CLD VIS AND WIND=



000
FTUS41 KCAR 292328
TAFHUL
TAF
KHUL 292328Z 3000/3024 VRB04KT P6SM FEW250
     FM301700 17009KT P6SM BKN080=



000
FTUS41 KCAR 292328
TAFBHB
TAF
KBHB 292328Z 3000/3024 18004KT P6SM SCT250
     FM300300 18002KT 4SM BR SCT003
     FM300500 18002KT 1SM BR BKN003
     FM301200 16007KT P6SM BKN120
      AMD LTD TO CLD VIS AND WIND=



000
FTUS41 KCAR 292328
TAFPQI
TAF
KPQI 292328Z 3000/3024 VRB04KT P6SM FEW250
     FM301700 17009KT P6SM BKN080
     FM302200 17009KT 5SM TSRA OVC025CB
      AMD LTD TO CLD VIS AND WIND=



000
FTUS41 KCAR 292328
TAFCAR
TAF
KCAR 292328Z 3000/3024 VRB04KT P6SM FEW250
     FM301700 17009KT P6SM BKN080
     FM302200 17009KT 5SM TSRA OVC025CB=



000
FTUS41 KCAR 292328
TAFBGR
TAF
KBGR 292328Z 3000/3024 18004KT P6SM FEW070
     FM300700 VRB02KT 4SM BR SCT004
     FM301200 17008KT P6SM BKN080=



    US Dept of Commerce
    National Oceanic and Atmospheric Administration
    National Weather Service
    1325 East West Highway
    Silver Spring, MD 20910
    Page Author: NWS Internet Services Team
Disclaimer
Information Quality
Credits
Glossary
Privacy Policy
Freedom of Information Act (FOIA)
About Us
Career Opportunities